Latest Coastal Weather Observations for Learmonth

IDW60701

Issued at 7:25 am WST Thursday 23 October 2014 (issued every 10 minutes, with the page automatically refreshed every 10 minutes)

About coastal observations | Map of coastal stations | Coastal observations for WA | Marine services | Other Formats
Station Details ID: 005007 Name: LEARMONTH AIRPORT Lat: -22.24 Lon: 114.10 Height: 5.0 m
Data from the previous 72 hours. | See also: Recent months at Learmonth
Date/Time
WST
Temp

°C
Wind Pressure Rain
since 9am
mm
Weather Cloud Vis
km
Sea
Height
m
Swell
Dir
 
Speed
knots
Gust
knots
hPa Trend Height
m
Period
s
Dir
23/07:00am 20.1 S 13 16 1016.7 - 0.0 - Mostly clear 10 - - - -
23/06:30am 18.8 S 11 15 1016.5 - 0.0 - Mostly clear 10 - - - -
23/06:00am 18.3 S 11 13 1016.3 S 0.0 Smoke Mostly clear 25 - - - -
23/05:30am 18.3 SSW 9 11 1016.4 - 0.0 - - 10 - - - -
23/05:00am 18.1 SSW 8 11 1016.1 - 0.0 - - 10 - - - -
23/04:30am 18.0 SSW 9 11 1016.0 - 0.0 - - 10 - - - -
23/04:00am 18.0 SW 8 10 1015.9 - 0.0 - - 10 - - - -
23/03:30am 18.0 SSW 8 12 1015.5 - 0.0 - - 10 - - - -
23/03:00am 18.2 SSW 8 10 1015.4 - 0.0 - - 10 - - - -
23/02:30am 18.3 SSW 9 12 1015.7 - 0.0 - - 10 - - - -
23/02:00am 18.4 SW 7 8 1016.1 - 0.0 - - 10 - - - -
23/01:30am 18.5 SSW 7 9 1016.2 - 0.0 - - 10 - - - -
23/01:00am 19.5 SSW 9 12 1016.5 - 0.0 - - 10 - - - -
23/12:30am 20.0 SSW 12 17 1016.2 - 0.0 - - 10 - - - -
23/12:00am 20.1 SSW 13 17 1016.0 - 0.0 - - 10 - - - -
 
Date/Time
WST
Temp

°C
Wind Pressure Rain
since 9am
mm
Weather Cloud Vis
km
Sea
Height
m
Swell
Dir
 
Speed
knots
Gust
knots
hPa Trend Height
m
Period
s
Dir
22/11:30pm 20.1 SSW 13 18 1016.1 - 0.0 - - 10 - - - -
22/11:00pm 20.3 SSW 15 19 1016.3 - 0.0 - - 10 - - - -
22/10:30pm 20.6 SSW 15 20 1016.7 - 0.0 - - 10 - - - -
22/10:00pm 20.8 SSW 15 19 1016.7 - 0.0 - - 10 - - - -
22/09:30pm 21.0 SSW 15 19 1016.8 - 0.0 - - 10 - - - -
22/09:00pm 21.3 SSW 16 21 1016.6 - 0.0 - - 10 - - - -
22/08:30pm 21.5 SSW 14 18 1016.6 - 0.0 - - 10 - - - -
22/08:00pm 21.9 SSW 15 18 1016.4 - 0.0 - - 10 - - - -
22/07:30pm 22.2 SSW 14 19 1016.2 - 0.0 - - 10 - - - -
22/07:00pm 23.0 SSW 15 20 1015.9 - 0.0 - - 10 - - - -
22/06:30pm 23.7 SSW 15 20 1015.6 - 0.0 - - 10 - - - -
22/06:00pm 24.3 SSW 15 20 1015.2 - 0.0 - - 10 - - - -
22/05:30pm 25.4 SSW 17 22 1015.2 - 0.0 - - 10 - - - -
22/05:00pm 26.2 SSW 18 22 1014.9 - 0.0 - - 10 - - - -
22/04:30pm 27.7 SSW 17 21 1014.7 - 0.0 - - 10 - - - -
22/04:00pm 28.5 SSW 14 19 1014.8 - 0.0 - - 10 - - - -
22/03:30pm 30.0 SSW 13 19 1014.7 - 0.0 - - 10 - - - -
22/03:00pm 30.1 SW 13 18 1014.7 S 0.0 Smoke Cloudy 27 - - - -
22/02:30pm 29.9 SSW 13 18 1015.1 - 0.0 - - 10 - - - -
22/02:00pm 29.5 SSW 13 17 1015.5 - 0.0 - - 10 - - - -
22/01:30pm 29.5 SSW 14 18 1015.7 - 0.0 - - 10 - - - -
22/01:00pm 30.9 SW 14 19 1016.0 - 0.0 - - 10 - - - -
22/12:30pm 30.1 SW 9 15 1016.2 - 0.0 - - 10 - - - -
22/12:00pm 29.1 S 10 14 1016.7 R 0.0 Smoke Cloudy 27 - - - -
22/11:30am 29.1 SW 11 17 1016.9 - 0.0 - - 10 - - - -
22/11:00am 27.2 S 12 17 1017.5 - 0.0 - - 10 - - - -
22/10:30am 26.7 SSW 12 15 1017.7 - 0.0 - - 10 - - - -
22/10:00am 26.2 S 12 17 1018.0 - 0.0 - - 10 - - - -
22/09:30am 24.2 S 13 18 1018.0 - 0.0 - Mostly clear 10 - - - -
22/09:00am 23.3 S 12 16 1018.1 F 0.0 Smoke Cloudy 25 - - - -
22/08:30am 22.5 S 14 19 1018.0 - 0.0 - - 10 - - - -
22/08:00am 21.5 S 10 13 1018.1 - 0.0 - Mostly clear 10 - - - -
22/07:30am 20.6 S 9 13 1017.7 - 0.0 - Mostly clear 10 - - - -
22/07:00am 19.6 SSW 7 10 1017.8 - 0.0 - Mostly clear 10 - - - -
22/06:30am 17.9 SW 4 5 1017.6 - 0.0 - Mostly clear 10 - - - -
22/06:00am 17.1 SW 4 5 1017.3 R 0.0 Smoke Mostly cloudy 25 - - - -
22/05:30am 17.1 SSW 5 6 1016.8 - 0.0 - - 10 - - - -
22/05:00am 17.3 S 6 8 1016.2 - 0.0 - - 10 - - - -
22/04:30am 18.1 S 9 13 1015.9 - 0.0 - - 10 - - - -
22/04:00am 17.6 S 9 11 1015.8 - 0.0 - - 10 - - - -
22/03:30am 16.3 SSW 7 8 1015.7 - 0.0 - - 10 - - - -
22/03:00am 16.7 SSW 7 7 1015.7 - 0.0 - - 10 - - - -
22/02:30am 16.5 SSW 7 9 1016.0 - 0.0 - - 10 - - - -
22/02:00am 16.7 SSW 7 8 1016.3 - 0.0 - - 10 - - - -
22/01:30am 16.6 S 7 8 1016.7 - 0.0 - - 10 - - - -
22/01:00am 17.0 S 7 8 1017.0 - 0.0 - - 10 - - - -
22/12:30am 17.7 S 6 7 1017.0 - 0.0 - - 10 - - - -
22/12:00am 18.4 SSW 6 8 1016.9 - 0.0 - - 10 - - - -
 
Date/Time
WST
Temp

°C
Wind Pressure Rain
since 9am
mm
Weather Cloud Vis
km
Sea
Height
m
Swell
Dir
 
Speed
knots
Gust
knots
hPa Trend Height
m
Period
s
Dir
21/11:30pm 19.7 SSW 5 7 1017.2 - 0.0 - - 10 - - - -
21/11:00pm 20.3 SW 7 10 1017.2 - 0.0 - - 10 - - - -
21/10:30pm 20.6 SW 9 12 1017.3 - 0.0 - - 10 - - - -
21/10:00pm 21.1 SW 12 16 1017.6 - 0.0 - - 10 - - - -
21/09:30pm 21.3 SW 11 15 1017.8 - 0.0 - - 10 - - - -
21/09:00pm 21.4 SW 10 14 1017.5 - 0.0 - - 10 - - - -
21/08:30pm 21.5 SW 10 14 1017.4 - 0.0 - - 10 - - - -
21/08:00pm 22.0 SW 9 12 1017.1 - 0.0 - - 10 - - - -
21/07:30pm 22.8 SW 13 15 1016.7 - 0.0 - - 10 - - - -
21/07:00pm 23.7 SW 13 17 1016.4 - 0.0 - - 10 - - - -
21/06:30pm 24.5 W 13 17 1016.1 - 0.0 - - 10 - - - -
21/06:00pm 26.7 SW 13 17 1015.7 - 0.0 - - 10 - - - -
21/05:30pm 28.8 WSW 12 15 1015.4 - 0.0 - - 10 - - - -
21/05:00pm 29.8 SW 12 16 1014.9 - 0.0 - - 10 - - - -
21/04:30pm 30.7 WSW 14 18 1014.7 - 0.0 - - 10 - - - -
21/04:00pm 31.2 WSW 16 19 1014.7 - 0.0 - - 10 - - - -
21/03:30pm 32.6 WSW 16 20 1014.4 - 0.0 - - 10 - - - -
21/03:00pm 32.0 ENE 10 14 1014.6 R 0.0 Fine Mostly clear 30 - - - -
21/02:30pm 31.1 NNE 10 13 1014.8 - 0.0 - - 10 - - - -
21/02:00pm 30.6 ENE 10 13 1014.8 - 0.0 - - 10 - - - -
21/01:30pm 30.9 E 11 14 1015.1 - 0.0 - - 10 - - - -
21/01:00pm 30.4 E 11 16 1015.5 - 0.0 - - 10 - - - -
21/12:30pm 32.1 S 7 12 1015.9 - 0.0 - - 10 - - - -
21/12:00pm 31.1 WSW 7 11 1016.2 - 0.0 - - 10 - - - -
21/11:30am 31.1 WSW 6 11 1016.7 - 0.0 - - 10 - - - -
21/11:00am 30.2 S 9 13 1017.0 - 0.0 - - 10 - - - -
21/10:30am 28.8 SW 9 13 1017.8 - 0.0 - - 10 - - - -
21/10:00am 27.7 S 7 13 1018.1 - 0.0 - - 10 - - - -
21/09:30am 26.6 S 8 12 1018.2 - 0.0 - - 10 - - - -
21/09:00am 25.5 SSW 10 15 1018.3 R 0.0 Fine Clear 30 - - - -
21/08:30am 23.8 SSW 10 14 1018.4 - 0.0 - - 10 - - - -
21/08:00am 22.5 SSW 11 15 1018.3 - 0.0 - - 10 - - - -
21/07:30am 21.3 SSW 12 15 1018.1 - 0.0 - - 10 - - - -
21/07:00am 20.2 SSW 10 13 1018.0 - 0.0 - - 10 - - - -
21/06:30am 18.3 SW 9 11 1017.8 - 0.0 - - 10 - - - -
21/06:00am 17.1 SW 9 11 1017.2 F 0.0 Fine Clear 30 - - - -
21/05:30am 17.4 SW 9 13 1017.1 - 0.0 - - 10 - - - -
21/05:00am 17.7 SW 11 15 1016.9 - 0.0 - - 10 - - - -
21/04:30am 17.6 SSW 11 14 1016.7 - 0.0 - - 10 - - - -
21/04:00am 17.8 SSW 11 14 1016.6 - 0.0 - - 10 - - - -
21/03:30am 17.9 SSW 11 13 1016.6 - 0.0 - - 10 - - - -
21/03:00am 18.7 SSW 12 17 1016.4 - 0.0 - - 10 - - - -
21/02:30am 19.1 SSW 13 16 1016.5 - 0.0 - - 10 - - - -
21/02:00am 19.3 SSW 13 17 1016.4 - 0.0 - - 10 - - - -
21/01:30am 19.5 SSW 12 16 1016.7 - 0.0 - - 10 - - - -
21/01:00am 19.6 SSW 11 14 1016.6 - 0.0 - - 10 - - - -
21/12:30am 19.6 SSW 10 13 1016.7 - 0.0 - - 10 - - - -
21/12:00am 19.8 SW 10 13 1016.7 - 0.0 - - 10 - - - -
 
Date/Time
WST
Temp

°C
Wind Pressure Rain
since 9am
mm
Weather Cloud Vis
km
Sea
Height
m
Swell
Dir
 
Speed
knots
Gust
knots
hPa Trend Height
m
Period
s
Dir
20/11:30pm 20.0 SSW 11 14 1017.0 - 0.0 - - 10 - - - -
20/11:00pm 20.1 SW 12 15 1017.3 - 0.0 - - 10 - - - -
20/10:30pm 20.3 SW 12 16 1017.3 - 0.0 - - 10 - - - -
20/10:00pm 20.6 SW 12 16 1017.4 - 0.0 - - 10 - - - -
20/09:30pm 20.9 SW 13 17 1017.3 - 0.0 - - 10 - - - -
20/09:00pm 21.1 SW 13 18 1017.1 - 0.0 - - 10 - - - -
20/08:30pm 21.5 SW 14 17 1017.0 - 0.0 - - 10 - - - -
20/08:00pm 22.0 SW 15 19 1016.8 - 0.0 - - 10 - - - -
20/07:30pm 22.8 SW 14 18 1016.4 - 0.0 - - 10 - - - -
20/07:00pm 23.6 SW 13 17 1015.9 - 0.0 - - 10 - - - -
20/06:30pm 24.5 SW 14 19 1015.4 - 0.0 - - 10 - - - -
20/06:00pm 26.0 SW 15 21 1014.9 - 0.0 - - 10 - - - -
20/05:30pm 26.7 WSW 18 23 1014.7 - 0.0 - - 10 - - - -
20/05:00pm 28.3 W 17 21 1014.5 - 0.0 - - 10 - - - -
20/04:30pm 28.6 W 16 22 1014.2 - 0.0 - - 10 - - - -
20/04:00pm 28.5 W 17 24 1014.3 - 0.0 - - 10 - - - -
20/03:30pm 28.3 WNW 17 22 1014.4 - 0.0 - - 10 - - - -
20/03:00pm 28.4 NW 11 17 1014.6 R 0.0 Fine Clear 30 - - - -
20/02:30pm 27.6 NNE 11 15 1014.8 - 0.0 - - 10 - - - -
20/02:00pm 27.4 NE 11 15 1015.1 - 0.0 - - 10 - - - -
20/01:30pm 26.9 NE 8 11 1015.4 - 0.0 - - 10 - - - -
20/01:00pm 25.8 NNE 10 14 1015.8 - 0.0 - Mostly clear 10 - - - -
20/12:30pm 26.1 NE 12 13 1016.1 - 0.0 - Mostly clear 10 - - - -
20/12:00pm 25.7 E 12 14 1016.3 F 0.0 Fine Mostly clear 30 - - - -
20/11:30am 25.4 E 13 16 1016.7 - 0.0 - - 10 - - - -
20/11:00am 25.5 E 13 17 1017.0 - 0.0 - Mostly clear 10 - - - -
20/10:30am 25.2 E 13 16 1017.3 - 0.0 - Mostly clear 10 - - - -
20/10:00am 25.2 SE 11 15 1017.7 - 0.0 - Mostly clear 10 - - - -
20/09:30am 24.2 SE 11 13 1017.9 - 0.0 - Mostly clear 10 - - - -
20/09:00am 23.7 S 11 13 1018.0 S 0.0 Fine Mostly clear 30 - - - -
20/08:30am 22.3 SSE 11 15 1018.2 - 0.0 - Mostly clear 10 - - - -
20/08:00am 21.4 SSE 11 14 1018.1 - 0.0 - Mostly clear 10 - - - -
20/07:30am 20.4 S 10 13 1017.9 - 0.0 - Mostly clear 10 - - - -

Other Formats:

Comma delimited format used in spreadsheet applications
http://www.bom.gov.au/fwo/IDW60701/IDW60701.94302.axf

JavaScript Object Notation format (JSON) in row-major order
http://www.bom.gov.au/fwo/IDW60701/IDW60701.94302.json